Time;durP1;ratioP1;P1;durP2;ratioP2;P2;SDS_P1;SDS_P2;PMS_P1;PMS_P2;Temp;Humidity;BMP_temperature;BMP_pressure;BME280_temperature;BME280_humidity;BME280_pressure;Samples;Min_cycle;Max_cycle;Signal;HPM_P1;HPM_P2
2022/08/01 00:01:57;;;;;;;4.17;3.77;;;;;;;21.25;64.51;99298.85;1836463;77;21577;-76
2022/08/01 00:04:23;;;;;;;5.20;3.83;;;;;;;21.19;64.62;99306.61;1847115;75;21529;-76
2022/08/01 00:06:50;;;;;;;5.40;4.05;;;;;;;21.11;64.67;99302.95;1846139;77;22389;-77
2022/08/01 00:09:18;;;;;;;6.62;3.55;;;;;;;21.04;64.83;99295.04;1855538;77;22425;-77
2022/08/01 00:11:45;;;;;;;5.95;3.77;;;;;;;21.01;64.89;99295.52;1855513;75;21443;-78
2022/08/01 00:14:13;;;;;;;5.85;3.67;;;;;;;20.98;64.92;99293.34;1855038;75;21092;-72
2022/08/01 00:16:40;;;;;;;6.53;3.75;;;;;;;20.95;64.93;99298.67;1821479;77;21009;-77
2022/08/01 00:19:06;;;;;;;7.58;4.12;;;;;;;20.94;65.15;99294.89;1753602;79;21037;-74
2022/08/01 00:21:33;;;;;;;9.10;4.50;;;;;;;20.91;65.51;99298.08;1787089;78;21629;-74
2022/08/01 00:23:59;;;;;;;6.30;4.30;;;;;;;20.86;65.58;99296.64;1815414;77;21189;-75
2022/08/01 00:26:26;;;;;;;4.22;3.75;;;;;;;20.83;65.51;99290.40;1782866;79;21056;-77
2022/08/01 00:28:53;;;;;;;4.62;4.03;;;;;;;20.79;65.65;99290.88;1810369;78;21070;-75
2022/08/01 00:31:19;;;;;;;5.22;4.00;;;;;;;20.76;65.74;99293.25;1813601;77;20983;-78
2022/08/01 00:33:45;;;;;;;6.58;3.60;;;;;;;20.73;65.98;99296.45;1817528;77;21755;-77
2022/08/01 00:36:12;;;;;;;7.78;4.22;;;;;;;20.67;66.78;99294.20;1816420;77;21060;-77
2022/08/01 00:38:38;;;;;;;4.03;3.65;;;;;;;20.66;66.79;99293.91;1818378;77;20985;-78
2022/08/01 00:41:05;;;;;;;7.08;3.65;;;;;;;20.73;66.96;99293.22;1813710;77;21045;-77
2022/08/01 00:43:32;;;;;;;3.92;3.33;;;;;;;20.66;67.53;99286.34;1815309;78;21086;-76
2022/08/01 00:45:59;;;;;;;7.08;4.03;;;;;;;20.53;67.59;99294.19;1814913;78;21833;-75
2022/08/01 00:48:25;;;;;;;6.03;3.98;;;;;;;20.42;67.53;99289.17;1778164;79;20992;-76
2022/08/01 00:50:51;;;;;;;6.83;3.90;;;;;;;20.38;67.59;99288.84;1815851;77;21536;-75
2022/08/01 00:53:18;;;;;;;6.03;3.80;;;;;;;20.36;68.05;99294.20;1797117;78;20995;-75
2022/08/01 00:55:44;;;;;;;5.33;3.72;;;;;;;20.31;68.36;99286.00;1786511;78;21481;-76
2022/08/01 00:58:11;;;;;;;5.83;3.58;;;;;;;20.25;68.30;99285.09;1802941;78;21722;-77
2022/08/01 01:00:37;;;;;;;12.88;4.45;;;;;;;20.18;68.42;99281.19;1789506;79;21019;-76
2022/08/01 01:03:04;;;;;;;9.13;4.10;;;;;;;20.13;68.33;99273.02;1788153;78;21057;-78
2022/08/01 01:05:33;;;;;;;5.45;3.80;;;;;;;20.12;68.68;99283.50;1807069;78;21006;-76
2022/08/01 01:08:06;;;;;;;10.23;4.05;;;;;;;20.10;68.61;99278.08;1773268;80;21514;-79
2022/08/01 01:10:44;;;;;;;8.98;3.98;;;;;;;20.15;68.56;99278.98;1779043;78;21910;-77
2022/08/01 01:13:18;;;;;;;4.50;3.65;;;;;;;20.25;68.38;99281.59;1801727;77;20990;-78
2022/08/01 01:15:58;;;;;;;6.05;3.67;;;;;;;20.21;68.77;99273.16;1774789;78;21056;-77
2022/08/01 01:18:31;;;;;;;4.70;3.85;;;;;;;20.19;68.44;99274.75;1763628;79;21065;-77
2022/08/01 01:21:04;;;;;;;4.05;3.40;;;;;;;20.20;68.26;99277.75;1788591;78;21040;-77
2022/08/01 01:24:05;;;;;;;4.12;3.72;;;;;;;20.19;68.53;99274.75;1792448;77;21248;-76
2022/08/01 01:27:04;;;;;;;7.25;4.08;;;;;;;20.20;68.38;99268.81;1811323;77;21045;-76
2022/08/01 01:29:41;;;;;;;5.22;3.90;;;;;;;20.18;68.65;99272.28;1811897;77;21064;-78
2022/08/01 01:32:18;;;;;;;5.62;3.95;;;;;;;20.13;68.41;99263.59;1764693;80;21081;-78
2022/08/01 01:34:45;;;;;;;4.33;3.75;;;;;;;20.11;68.43;99266.22;1810625;78;21072;-77
2022/08/01 01:37:18;;;;;;;6.95;3.42;;;;;;;20.10;68.43;99268.64;1756151;80;21376;-78
2022/08/01 01:39:45;;;;;;;7.05;3.67;;;;;;;20.07;68.52;99270.46;1809773;78;21028;-78
2022/08/01 01:42:11;;;;;;;4.47;3.50;;;;;;;20.12;68.70;99270.02;1823427;78;21074;-79
2022/08/01 01:44:38;;;;;;;4.10;3.15;;;;;;;20.23;68.49;99279.13;1827014;77;20982;-76
2022/08/01 01:47:05;;;;;;;4.58;4.17;;;;;;;20.23;68.51;99274.55;1816578;77;21083;-74
2022/08/01 01:49:32;;;;;;;5.37;3.62;;;;;;;20.21;68.25;99279.91;1815185;77;21518;-75
2022/08/01 01:51:59;;;;;;;4.35;3.95;;;;;;;20.21;68.57;99278.02;1791905;80;20966;-76
2022/08/01 01:54:31;;;;;;;7.58;3.85;;;;;;;20.22;68.42;99290.45;1798190;78;21048;-74
2022/08/01 01:56:59;;;;;;;8.88;4.25;;;;;;;20.19;68.24;99284.19;1789875;78;21057;-75
2022/08/01 01:59:28;;;;;;;4.83;3.80;;;;;;;20.17;68.14;99286.84;1814129;78;21048;-77
2022/08/01 02:01:56;;;;;;;8.20;4.03;;;;;;;20.15;68.39;99295.17;1789100;80;21083;-76
2022/08/01 02:04:23;;;;;;;6.72;4.05;;;;;;;20.12;68.28;99297.53;1792678;78;22011;-75
2022/08/01 02:06:50;;;;;;;7.42;3.67;;;;;;;20.09;68.28;99285.86;1796660;78;21090;-75
2022/08/01 02:09:19;;;;;;;7.53;4.45;;;;;;;20.06;68.34;99293.11;1812766;78;21024;-77
2022/08/01 02:11:48;;;;;;;5.75;3.85;;;;;;;20.03;68.47;99287.14;1817293;78;21069;-75
2022/08/01 02:14:14;;;;;;;5.10;4.30;;;;;;;20.00;68.57;99290.30;1805996;78;21209;-76
2022/08/01 02:16:43;;;;;;;7.33;3.67;;;;;;;19.99;68.65;99289.19;1805432;78;21009;-77
2022/08/01 02:19:10;;;;;;;6.67;3.65;;;;;;;20.04;68.53;99288.76;1800546;79;21552;-75
2022/08/01 02:21:44;;;;;;;5.25;3.90;;;;;;;20.14;68.31;99285.43;1776085;78;21010;-75
2022/08/01 02:24:34;;;;;;;5.00;3.92;;;;;;;20.14;68.42;99287.31;1804971;78;21521;-76
2022/08/01 02:27:04;;;;;;;6.15;4.00;;;;;;;20.13;68.46;99279.77;1783369;78;22044;-75
2022/08/01 02:29:36;;;;;;;6.28;3.87;;;;;;;20.13;68.41;99284.34;1801208;78;21041;-76
2022/08/01 02:32:04;;;;;;;7.33;3.63;;;;;;;20.11;68.24;99287.78;1805693;78;21099;-75
2022/08/01 02:34:33;;;;;;;5.30;3.75;;;;;;;20.06;68.40;99276.92;1827761;77;21041;-76
2022/08/01 02:37:01;;;;;;;4.42;4.00;;;;;;;20.07;68.62;99283.44;1794952;80;21032;-76
2022/08/01 02:39:27;;;;;;;6.53;3.90;;;;;;;20.05;68.55;99278.81;1815674;77;21285;-74
2022/08/01 02:41:58;;;;;;;4.33;3.45;;;;;;;20.01;68.77;99278.47;1774194;80;21060;-75
2022/08/01 02:44:29;;;;;;;7.08;3.90;;;;;;;19.99;69.28;99276.55;1805475;77;21076;-77
2022/08/01 02:47:02;;;;;;;5.90;3.70;;;;;;;19.94;69.13;99277.80;1823986;78;21036;-76
2022/08/01 02:49:36;;;;;;;3.90;3.40;;;;;;;19.91;69.20;99274.75;1793550;80;21015;-75
2022/08/01 02:52:06;;;;;;;7.00;3.80;;;;;;;19.97;69.25;99275.13;1815568;77;21227;-78
2022/08/01 02:54:33;;;;;;;7.33;3.77;;;;;;;20.07;69.26;99274.50;1812304;78;21017;-78
2022/08/01 02:57:00;;;;;;;5.85;3.75;;;;;;;20.08;69.10;99278.84;1818860;77;20989;-77
2022/08/01 02:59:27;;;;;;;5.00;3.55;;;;;;;20.08;69.18;99274.80;1791922;80;21052;-76
2022/08/01 03:01:57;;;;;;;5.42;3.92;;;;;;;20.10;69.38;99274.03;1828664;77;21513;-78
2022/08/01 03:04:24;;;;;;;5.58;4.08;;;;;;;20.07;69.65;99277.20;1773256;79;21335;-77
2022/08/01 03:06:52;;;;;;;6.85;3.80;;;;;;;20.00;69.85;99274.66;1809435;77;21053;-77
2022/08/01 03:09:19;;;;;;;4.33;3.55;;;;;;;19.92;70.44;99277.75;1772231;80;21052;-77
2022/08/01 03:11:46;;;;;;;5.50;3.65;;;;;;;19.88;70.47;99274.72;1825354;78;21059;-76
2022/08/01 03:14:13;;;;;;;7.00;4.00;;;;;;;19.93;70.26;99276.14;1809813;78;21009;-76
2022/08/01 03:16:41;;;;;;;9.05;4.75;;;;;;;19.95;70.19;99282.14;1801195;78;21541;-75
2022/08/01 03:19:09;;;;;;;5.83;4.22;;;;;;;19.97;70.05;99280.02;1820993;78;21009;-80
2022/08/01 03:21:36;;;;;;;4.92;3.75;;;;;;;19.99;69.44;99285.14;1772323;78;21054;-79
2022/08/01 03:24:04;;;;;;;5.10;4.30;;;;;;;20.01;69.30;99288.41;1796945;78;21024;-74
2022/08/01 03:26:33;;;;;;;5.97;4.22;;;;;;;19.97;69.41;99277.33;1819871;78;21052;-76
2022/08/01 03:29:06;;;;;;;4.95;3.95;;;;;;;20.02;69.28;99292.77;1796162;78;21209;-74
2022/08/01 03:31:37;;;;;;;7.20;4.72;;;;;;;19.99;69.37;99283.30;1817961;77;21318;-74
2022/08/01 03:34:04;;;;;;;4.47;4.03;;;;;;;20.02;69.75;99287.38;1826159;78;21116;-75
2022/08/01 03:36:32;;;;;;;7.90;4.58;;;;;;;20.02;69.40;99287.38;1775016;79;20990;-76
2022/08/01 03:39:02;;;;;;;9.08;4.25;;;;;;;20.10;68.90;99288.33;1816614;78;21525;-76
2022/08/01 03:41:33;;;;;;;9.58;4.20;;;;;;;20.20;68.71;99285.84;1813296;77;21152;-76
2022/08/01 03:44:10;;;;;;;5.35;3.90;;;;;;;20.21;68.61;99279.91;1790300;80;21025;-78
2022/08/01 03:46:49;;;;;;;6.62;4.22;;;;;;;20.19;68.73;99281.48;1784818;78;21493;-76
2022/08/01 03:49:25;;;;;;;6.67;4.08;;;;;;;20.18;68.17;99283.07;1777388;79;21099;-77
2022/08/01 03:51:51;;;;;;;5.67;3.87;;;;;;;20.17;68.21;99276.87;1817153;78;21351;-76
2022/08/01 03:54:24;;;;;;;7.85;4.10;;;;;;;20.16;67.84;99279.80;1798428;77;21076;-75
2022/08/01 03:56:51;;;;;;;;;;;;;;;20.15;67.84;99276.30;1797724;78;21485;-77
2022/08/01 03:59:18;;;;;;;6.75;4.08;;;;;;;20.15;67.63;99276.83;1798719;78;20168;-76
2022/08/01 04:01:45;;;;;;;6.50;4.05;;;;;;;20.13;67.24;99278.42;1817155;78;21127;-78
2022/08/01 04:04:12;;;;;;;10.35;4.05;;;;;;;20.12;67.09;99279.46;1821754;78;21114;-78
2022/08/01 04:06:40;;;;;;;4.15;3.75;;;;;;;20.12;66.89;99283.50;1825183;78;21102;-79
2022/08/01 04:09:07;;;;;;;4.42;3.40;;;;;;;20.13;66.56;99277.61;1783220;79;20984;-79
2022/08/01 04:11:35;;;;;;;6.40;3.58;;;;;;;20.15;66.47;99281.69;1811199;79;21139;-78
2022/08/01 04:14:01;;;;;;;5.20;3.52;;;;;;;20.17;66.17;99278.22;1788259;78;21049;-80
2022/08/01 04:16:28;;;;;;;5.87;3.60;;;;;;;20.20;65.83;99272.86;1809286;79;21073;-80
2022/08/01 04:18:56;;;;;;;5.20;3.22;;;;;;;20.27;65.81;99284.86;1787584;79;21145;-78
2022/08/01 04:21:27;;;;;;;6.58;3.52;;;;;;;20.31;65.66;99278.72;1802692;78;21561;-77
2022/08/01 04:23:56;;;;;;;9.88;4.10;;;;;;;20.34;65.68;99267.97;1782954;80;21088;-77
2022/08/01 04:26:23;;;;;;;12.25;3.62;;;;;;;20.42;65.18;99277.03;1825032;78;21025;-80
2022/08/01 04:28:49;;;;;;;5.45;4.03;;;;;;;20.48;64.72;99276.05;1792802;78;21084;-79
2022/08/01 04:31:16;;;;;;;6.35;3.00;;;;;;;20.56;64.58;99277.53;1819919;78;21137;-76
2022/08/01 04:33:46;;;;;;;5.40;3.50;;;;;;;20.66;64.19;99276.91;1826061;78;21064;-78
2022/08/01 04:36:13;;;;;;;4.40;3.40;;;;;;;20.76;63.57;99274.36;1816041;77;21008;-76
2022/08/01 04:38:39;;;;;;;8.40;3.55;;;;;;;20.86;63.30;99272.34;1815269;77;21014;-76
2022/08/01 04:41:06;;;;;;;4.05;3.15;;;;;;;20.96;62.99;99276.02;1775488;79;21076;-79
2022/08/01 04:43:33;;;;;;;6.35;3.12;;;;;;;21.10;62.72;99274.33;1776113;79;21136;-80
2022/08/01 04:45:59;;;;;;;6.10;3.35;;;;;;;21.19;62.21;99272.30;1806389;79;21009;-79
2022/08/01 04:48:26;;;;;;;6.40;3.25;;;;;;;21.30;62.07;99272.43;1798024;78;21032;-79
2022/08/01 04:50:52;;;;;;;5.80;3.75;;;;;;;21.41;61.91;99269.61;1816033;77;21002;-80
2022/08/01 04:53:21;;;;;;;9.68;3.47;;;;;;;21.53;61.46;99272.75;1817462;78;21021;-80
2022/08/01 04:55:48;;;;;;;5.60;3.22;;;;;;;21.62;61.26;99270.44;1787592;78;21491;-81
2022/08/01 04:58:15;;;;;;;7.87;3.70;;;;;;;21.70;61.50;99265.94;1814056;78;21028;-79
2022/08/01 05:00:41;;;;;;;4.83;3.50;;;;;;;21.77;61.35;99261.16;1775707;78;21060;-78
2022/08/01 05:03:08;;;;;;;7.25;3.25;;;;;;;21.84;60.56;99263.11;1823155;77;21056;-80
2022/08/01 05:05:35;;;;;;;4.55;3.00;;;;;;;21.91;60.21;99258.33;1788693;79;21186;-78
2022/08/01 05:08:01;;;;;;;4.50;2.92;;;;;;;22.01;59.73;99257.61;1774414;78;21048;-79
2022/08/01 05:10:29;;;;;;;3.58;2.72;;;;;;;22.10;59.14;99261.50;1810569;77;21050;-79
2022/08/01 05:12:55;;;;;;;6.15;3.10;;;;;;;22.18;58.58;99257.52;1771895;80;21002;-81
2022/08/01 05:15:25;;;;;;;6.90;3.25;;;;;;;22.24;58.23;99264.60;1824586;78;20970;-80
2022/08/01 05:17:50;;;;;;;7.03;2.67;;;;;;;22.28;57.72;99265.75;1822606;78;21025;-78
2022/08/01 05:20:17;;;;;;;7.70;2.98;;;;;;;22.30;57.19;99257.38;1811720;78;21143;-80
2022/08/01 05:22:43;;;;;;;5.12;3.17;;;;;;;22.29;57.05;99252.52;1818939;77;21092;-80
2022/08/01 05:25:10;;;;;;;5.40;3.02;;;;;;;22.30;57.24;99250.07;1810687;78;21535;-80
2022/08/01 05:27:39;;;;;;;5.60;3.00;;;;;;;22.33;57.55;99248.22;1821363;78;21522;-80
2022/08/01 05:30:08;;;;;;;4.47;3.62;;;;;;;22.36;57.57;99246.87;1806340;77;21062;-81
2022/08/01 05:32:35;;;;;;;7.20;3.42;;;;;;;22.41;57.48;99242.88;1790709;78;21262;-81
2022/08/01 05:35:02;;;;;;;5.65;3.15;;;;;;;22.47;57.54;99244.53;1809368;79;21021;-80
2022/08/01 05:37:29;;;;;;;5.53;3.10;;;;;;;22.52;57.47;99256.77;1805522;77;21580;-79
2022/08/01 05:39:55;;;;;;;5.22;3.45;;;;;;;22.57;56.87;99251.92;1805663;78;21077;-77
2022/08/01 05:42:22;;;;;;;5.20;3.37;;;;;;;22.58;56.73;99247.61;1798660;77;21033;-79
2022/08/01 05:44:50;;;;;;;4.62;3.10;;;;;;;22.61;56.67;99259.80;1801936;78;21016;-77
2022/08/01 05:47:17;;;;;;;7.30;3.02;;;;;;;22.64;56.70;99253.87;1791274;79;21080;-76
2022/08/01 05:49:45;;;;;;;4.47;3.02;;;;;;;22.68;56.76;99262.30;1785800;79;21024;-75
2022/08/01 05:52:11;;;;;;;7.42;3.02;;;;;;;22.71;56.27;99257.70;1807353;77;21569;-72
2022/08/01 05:54:38;;;;;;;5.28;3.08;;;;;;;22.80;56.27;99260.76;1827888;78;21489;-77
2022/08/01 05:57:04;;;;;;;3.60;2.65;;;;;;;22.88;55.94;99258.36;1787268;80;21203;-74
2022/08/01 05:59:31;;;;;;;6.92;3.30;;;;;;;22.95;55.86;99263.57;1793352;78;20991;-74
2022/08/01 06:01:57;;;;;;;9.08;4.67;;;;;;;23.04;55.56;99266.08;1791893;79;21087;-76
2022/08/01 06:04:23;;;;;;;5.05;3.20;;;;;;;23.10;55.32;99261.50;1785340;78;21140;-77
2022/08/01 06:06:51;;;;;;;6.60;3.15;;;;;;;23.19;55.13;99261.84;1793062;79;21006;-79
2022/08/01 06:09:17;;;;;;;5.35;2.60;;;;;;;23.27;54.89;99266.20;1801692;78;21224;-78
2022/08/01 06:11:44;;;;;;;2.70;2.50;;;;;;;;;;1790247;78;21104;-75
2022/08/01 06:14:10;;;;;;;7.03;3.12;;;;;;;23.45;54.04;99258.69;1796951;79;21064;-76
2022/08/01 06:16:36;;;;;;;7.45;3.30;;;;;;;23.48;54.01;99263.59;1827929;77;21500;-75
2022/08/01 06:19:03;;;;;;;3.70;3.10;;;;;;;23.50;53.47;99254.66;1794204;80;21287;-76
2022/08/01 06:21:29;;;;;;;7.05;3.15;;;;;;;23.48;53.83;99250.85;1822661;78;21422;-73
2022/08/01 06:23:56;;;;;;;4.08;3.08;;;;;;;23.50;54.08;99245.17;1787607;80;21116;-72
2022/08/01 06:26:22;;;;;;;5.72;3.25;;;;;;;23.56;53.94;99241.39;1785141;78;21002;-73
2022/08/01 06:28:48;;;;;;;7.10;3.30;;;;;;;23.61;53.96;99248.75;1820239;77;21323;-73
2022/08/01 06:31:15;;;;;;;7.03;3.08;;;;;;;23.65;53.67;99244.42;1807917;78;21073;-72
2022/08/01 06:33:41;;;;;;;9.08;4.37;;;;;;;23.70;53.79;99242.54;1792280;78;21227;-73
2022/08/01 06:36:09;;;;;;;4.67;3.12;;;;;;;23.73;53.50;99240.63;1798000;78;21016;-73
2022/08/01 06:38:35;;;;;;;7.40;3.45;;;;;;;23.77;53.48;99238.20;1783811;79;21095;-74
2022/08/01 06:41:02;;;;;;;6.12;2.98;;;;;;;23.81;53.49;99229.83;1797917;77;21046;-74
2022/08/01 06:43:29;;;;;;;7.12;3.58;;;;;;;23.87;53.82;99218.45;1790546;78;20983;-73
2022/08/01 06:45:55;;;;;;;5.30;3.58;;;;;;;23.94;53.63;99220.38;1789558;78;21111;-73
2022/08/01 06:48:22;;;;;;;5.08;3.50;;;;;;;24.02;53.66;99217.67;1801666;78;21013;-74
2022/08/01 06:50:48;;;;;;;9.23;3.72;;;;;;;24.11;53.51;99217.42;1821856;77;21048;-74
2022/08/01 06:53:15;;;;;;;5.37;3.20;;;;;;;24.19;53.45;99213.36;1789932;79;21070;-73
2022/08/01 06:55:41;;;;;;;6.95;3.15;;;;;;;24.16;53.28;99212.53;1804863;78;21044;-69
2022/08/01 06:58:07;;;;;;;3.98;3.20;;;;;;;24.12;53.41;99213.61;1764189;78;21521;-73
2022/08/01 07:00:34;;;;;;;3.42;2.98;;;;;;;24.13;53.68;99211.98;1807280;77;21001;-74
2022/08/01 07:03:01;;;;;;;4.20;3.22;;;;;;;24.17;56.01;99219.59;1785160;78;21037;-79
2022/08/01 07:05:30;;;;;;;18.48;4.75;;;;;;;24.20;55.55;99224.47;1818366;78;20988;-80
2022/08/01 07:07:59;;;;;;;4.72;3.40;;;;;;;24.25;53.86;99223.13;1827915;78;21075;-78
2022/08/01 07:10:26;;;;;;;7.95;3.22;;;;;;;24.32;53.64;99219.05;1787896;78;22175;-78
2022/08/01 07:12:52;;;;;;;6.78;3.87;;;;;;;24.42;53.85;99210.64;1810231;78;21548;-78
2022/08/01 07:15:21;;;;;;;9.23;3.90;;;;;;;24.53;54.00;99208.20;1779011;78;21501;-79
2022/08/01 07:17:47;;;;;;;6.20;3.47;;;;;;;24.63;53.68;99208.20;1793197;78;21013;-78
2022/08/01 07:20:14;;;;;;;4.90;3.80;;;;;;;24.75;53.84;99207.91;1817933;77;21021;-80
2022/08/01 07:22:40;;;;;;;7.95;4.00;;;;;;;24.85;53.36;99207.87;1790800;78;21109;-79
2022/08/01 07:25:07;;;;;;;7.58;3.50;;;;;;;24.95;53.19;99207.59;1803833;78;21407;-76
2022/08/01 07:27:36;;;;;;;7.92;3.67;;;;;;;25.03;53.10;99204.30;1799604;78;21207;-77
2022/08/01 07:30:05;;;;;;;9.05;3.60;;;;;;;25.13;52.84;99205.64;1808438;78;20974;-79
2022/08/01 07:32:33;;;;;;;6.15;3.50;;;;;;;25.23;52.80;99202.11;1799946;78;21036;-79
2022/08/01 07:34:59;;;;;;;4.05;3.15;;;;;;;25.34;52.33;99204.22;1801168;78;22391;-78
2022/08/01 07:37:26;;;;;;;5.45;3.52;;;;;;;25.45;51.82;99204.44;1813108;78;21093;-79
2022/08/01 07:39:53;;;;;;;4.87;3.30;;;;;;;25.52;51.69;99203.59;1791731;80;21052;-79
2022/08/01 07:42:19;;;;;;;9.60;3.35;;;;;;;25.60;52.05;99199.48;1758759;80;21089;-77
2022/08/01 07:44:45;;;;;;;8.35;3.02;;;;;;;25.72;51.89;99203.22;1788328;78;21550;-75
2022/08/01 07:47:12;;;;;;;5.70;3.10;;;;;;;25.79;51.92;99192.84;1795640;78;21128;-74
2022/08/01 07:49:39;;;;;;;6.95;3.25;;;;;;;25.82;51.75;99194.42;1790068;78;21589;-77
2022/08/01 07:52:05;;;;;;;10.18;3.72;;;;;;;25.89;51.14;99192.77;1795338;78;21089;-75
2022/08/01 07:54:32;;;;;;;5.37;3.42;;;;;;;25.93;51.21;99192.49;1792619;77;21509;-74
2022/08/01 07:56:58;;;;;;;6.80;3.25;;;;;;;26.00;51.10;99186.72;1792711;78;21049;-76
2022/08/01 07:59:25;;;;;;;6.55;3.70;;;;;;;26.07;50.94;99192.66;1774638;78;21041;-75
2022/08/01 08:01:52;;;;;;;9.53;3.10;;;;;;;26.16;50.53;99186.08;1792726;78;21006;-74
2022/08/01 08:04:19;;;;;;;8.53;3.50;;;;;;;26.23;50.26;99185.17;1808405;77;21037;-76
2022/08/01 08:06:47;;;;;;;27.67;4.37;;;;;;;26.29;50.55;99186.22;1804586;77;21053;-77
2022/08/01 08:09:14;;;;;;;5.03;3.22;;;;;;;26.39;50.44;99185.32;1762818;80;21060;-78
2022/08/01 08:11:43;;;;;;;7.45;3.20;;;;;;;26.48;50.04;99179.52;1801786;77;21098;-79
2022/08/01 08:14:10;;;;;;;6.25;3.20;;;;;;;26.55;49.88;99187.34;1775059;78;21635;-77
2022/08/01 08:16:39;;;;;;;6.12;2.83;;;;;;;26.60;49.65;99185.17;1764005;79;21543;-77
2022/08/01 08:19:05;;;;;;;4.42;3.15;;;;;;;26.63;49.59;99181.85;1787989;78;21033;-79
2022/08/01 08:21:32;;;;;;;5.65;2.95;;;;;;;26.70;49.23;99193.23;1787629;78;21075;-78
2022/08/01 08:26:43;;;;;;;4.95;3.00;;;;;;;26.80;49.74;99186.30;1767837;78;21061;-78
2022/08/01 08:29:10;;;;;;;6.08;3.35;;;;;;;26.79;50.06;99160.17;1771774;80;21014;-79
2022/08/01 08:31:37;;;;;;;8.25;3.37;;;;;;;27.07;49.69;99183.55;1800746;78;21251;-75
2022/08/01 08:34:03;;;;;;;7.12;3.00;;;;;;;27.20;49.50;99185.58;1803795;78;21018;-77
2022/08/01 08:36:30;;;;;;;5.87;3.20;;;;;;;27.34;49.16;99169.89;1808426;77;21135;-78
2022/08/01 08:39:02;;;;;;;3.65;3.35;;;;;;;27.41;49.03;99174.41;1769987;78;21675;-82
2022/08/01 08:41:35;;;;;;;9.25;3.75;;;;;;;27.46;48.82;99171.63;1793326;77;21445;-84
2022/08/01 08:44:06;;;;;;;6.62;3.33;;;;;;;27.63;49.09;99166.47;1797958;77;21074;-83
2022/08/01 08:46:39;;;;;;;4.80;3.70;;;;;;;27.63;49.09;99166.47;1792446;78;21014;-82
2022/08/01 08:49:05;;;;;;;7.15;3.67;;;;;;;27.72;48.74;99168.53;1795222;78;21010;-81
2022/08/01 08:51:34;;;;;;;5.05;3.80;;;;;;;27.85;48.61;99174.61;1783309;78;21014;-79
2022/08/01 08:54:00;;;;;;;4.78;3.58;;;;;;;27.91;48.68;99175.38;1795349;78;21507;-80
2022/08/01 08:56:29;;;;;;;5.70;3.85;;;;;;;28.03;48.81;99175.19;1796725;78;21049;-82
2022/08/01 08:58:55;;;;;;;4.55;3.75;;;;;;;28.20;48.52;99182.00;1799006;78;21529;-83
2022/08/01 09:01:22;;;;;;;5.03;3.90;;;;;;;28.36;48.26;99179.28;1798105;78;21677;-83
2022/08/01 09:03:48;;;;;;;6.15;3.98;;;;;;;28.53;47.96;99177.91;1782374;78;20985;-81
2022/08/01 09:06:15;;;;;;;5.05;3.67;;;;;;;28.69;47.66;99175.17;1790904;78;21030;-83
2022/08/01 09:08:43;;;;;;;7.22;4.17;;;;;;;28.89;47.27;99169.05;1789767;78;21010;-81
2022/08/01 09:11:10;;;;;;;6.58;3.67;;;;;;;29.12;46.93;99174.06;1798733;78;21013;-83
2022/08/01 09:13:39;;;;;;;9.18;4.05;;;;;;;29.33;46.96;99175.84;1789507;78;21122;-82
2022/08/01 09:16:05;;;;;;;5.22;3.70;;;;;;;29.57;46.74;99170.94;1797798;78;21076;-80
2022/08/01 09:18:40;;;;;;;5.17;3.52;;;;;;;29.86;46.50;99175.20;1792445;77;21082;-80
2022/08/01 09:21:09;;;;;;;5.37;3.65;;;;;;;30.18;45.82;99176.09;1790048;78;21077;-78
2022/08/01 09:23:42;;;;;;;5.03;3.83;;;;;;;30.46;45.38;99169.11;1791354;77;21049;-80
2022/08/01 09:26:16;;;;;;;9.10;4.33;;;;;;;30.69;44.93;99170.66;1795637;77;21889;-81
2022/08/01 09:28:42;;;;;;;5.67;3.98;;;;;;;31.03;44.87;99176.65;1810475;78;21037;-81
2022/08/01 09:31:12;;;;;;;5.37;3.98;;;;;;;31.44;44.29;99174.87;1807955;79;21050;-81
2022/08/01 09:33:53;;;;;;;6.40;4.28;;;;;;;31.83;43.94;99177.83;1813210;78;20987;-80
2022/08/01 09:36:21;;;;;;;12.88;4.92;;;;;;;32.20;42.86;99175.01;1798197;78;21536;-80
2022/08/01 09:38:49;;;;;;;4.80;4.20;;;;;;;32.49;42.03;99182.53;1787916;78;21141;-81
2022/08/01 09:41:15;;;;;;;8.90;5.00;;;;;;;32.72;41.65;99187.80;1793676;77;21400;-80
2022/08/01 09:43:50;;;;;;;7.92;5.12;;;;;;;32.96;41.68;99174.85;1779397;80;20975;-77
2022/08/01 09:46:16;;;;;;;6.03;5.22;;;;;;;33.20;41.34;99174.25;1806650;78;21009;-78
2022/08/01 09:48:58;;;;;;;5.60;4.35;;;;;;;33.52;40.77;99177.45;1783744;78;21002;-80
2022/08/01 09:51:38;;;;;;;4.87;4.30;;;;;;;33.71;39.90;99165.17;1805057;77;21629;-78
2022/08/01 09:54:06;;;;;;;5.35;4.10;;;;;;;33.78;40.04;99180.02;1797976;79;21050;-79
2022/08/01 09:56:45;;;;;;;4.75;4.08;;;;;;;33.87;39.45;99171.11;1801035;79;20989;-75
2022/08/01 09:59:11;;;;;;;6.30;4.70;;;;;;;33.94;39.68;99175.27;1799499;78;21041;-78
2022/08/01 10:01:47;;;;;;;4.22;3.92;;;;;;;34.02;39.21;99182.67;1781813;78;21029;-77
2022/08/01 10:04:20;;;;;;;5.17;4.67;;;;;;;33.96;39.36;99179.86;1807571;78;21148;-81
2022/08/01 10:06:52;;;;;;;7.25;4.22;;;;;;;33.92;39.41;99170.66;1785327;79;21009;-82
2022/08/01 10:09:31;;;;;;;5.03;4.17;;;;;;;33.79;39.76;99169.25;1814466;77;21021;-84
2022/08/01 10:11:59;;;;;;;5.30;4.53;;;;;;;33.76;39.94;99178.75;1814582;77;21037;-80
2022/08/01 10:14:28;;;;;;;4.37;3.98;;;;;;;33.93;39.93;99180.56;1810134;77;21087;-81
2022/08/01 10:16:57;;;;;;;4.53;4.12;;;;;;;34.18;39.91;99171.84;1814022;78;21085;-82
2022/08/01 10:19:27;;;;;;;5.15;4.40;;;;;;;34.61;39.53;99175.48;1773767;79;21073;-82
2022/08/01 10:21:54;;;;;;;7.05;4.20;;;;;;;35.00;39.00;99155.87;1811894;78;21056;-84
2022/08/01 10:24:21;;;;;;;5.55;4.80;;;;;;;35.37;38.72;99163.58;1783286;80;21440;-81
2022/08/01 10:26:51;;;;;;;4.42;3.95;;;;;;;35.83;38.17;99155.05;1810142;77;21036;-80
2022/08/01 10:29:19;;;;;;;4.90;4.42;;;;;;;36.13;37.74;99166.55;1772051;80;21242;-82
2022/08/01 10:31:46;;;;;;;5.97;4.65;;;;;;;36.23;37.44;99152.02;1793923;77;21489;-80
2022/08/01 10:34:15;;;;;;;5.92;5.17;;;;;;;36.02;37.79;99147.48;1810970;77;21029;-81
2022/08/01 10:36:43;;;;;;;4.60;4.22;;;;;;;35.84;37.83;99148.37;1776901;80;21026;-80
2022/08/01 10:39:13;;;;;;;5.17;4.10;;;;;;;35.76;38.04;99151.52;1811854;78;21242;-80
2022/08/01 10:41:40;;;;;;;4.87;4.47;;;;;;;35.82;38.07;99152.86;1790133;78;22254;-82
2022/08/01 10:44:07;;;;;;;4.70;4.25;;;;;;;36.09;37.71;99148.27;1809984;77;21061;-79
2022/08/01 10:46:38;;;;;;;6.37;4.30;;;;;;;36.29;37.63;99146.45;1801631;78;21025;-83
2022/08/01 10:49:09;;;;;;;9.35;4.35;;;;;;;36.39;37.67;99149.50;1814764;78;21092;-81
2022/08/01 10:51:38;;;;;;;7.55;4.40;;;;;;;36.51;37.36;99143.63;1765499;79;21025;-77
2022/08/01 10:54:09;;;;;;;4.37;3.98;;;;;;;36.68;37.33;99143.30;1787100;78;21990;-77
2022/08/01 10:56:49;;;;;;;5.70;4.53;;;;;;;36.77;37.04;99143.92;1816947;77;21116;-80
2022/08/01 10:59:28;;;;;;;5.10;4.17;;;;;;;36.96;36.91;99136.27;1796856;77;21056;-77
2022/08/01 11:01:59;;;;;;;4.83;4.20;;;;;;;37.11;36.63;99138.80;1775857;78;21202;-78
2022/08/01 11:04:46;;;;;;;5.10;3.90;;;;;;;37.26;36.76;99133.59;1809288;77;21024;-77
2022/08/01 11:07:17;;;;;;;5.83;4.05;;;;;;;37.28;36.45;99145.11;1792576;79;21141;-79
2022/08/01 11:09:48;;;;;;;7.58;4.53;;;;;;;36.84;36.74;99130.86;1791999;77;21040;-79
2022/08/01 11:12:16;;;;;;;5.25;4.33;;;;;;;36.54;37.12;99143.73;1809580;77;21024;-76
2022/08/01 11:15:05;;;;;;;5.80;4.40;;;;;;;36.44;37.59;99143.47;1754447;78;21091;-78
2022/08/01 11:17:44;;;;;;;5.42;4.28;;;;;;;36.33;37.76;99159.19;1798989;77;21059;-75
2022/08/01 11:20:14;;;;;;;6.50;4.65;;;;;;;36.35;37.71;99142.25;1797697;78;21071;-76
2022/08/01 11:23:05;;;;;;;5.05;4.53;;;;;;;36.40;37.52;99148.33;1817612;77;21143;-74
2022/08/01 11:25:46;;;;;;;4.90;4.40;;;;;;;36.66;37.34;99145.63;1770223;79;21053;-77
2022/08/01 11:28:25;;;;;;;5.55;4.83;;;;;;;36.90;37.32;99135.54;1813242;77;21064;-77
2022/08/01 11:30:55;;;;;;;8.10;4.42;;;;;;;37.15;37.12;99143.86;1786167;78;21041;-77
2022/08/01 11:33:46;;;;;;;8.65;4.67;;;;;;;37.43;36.56;99141.48;1750439;80;21217;-79
2022/08/01 11:36:16;;;;;;;8.90;4.78;;;;;;;37.52;36.45;99141.28;1802725;77;21099;-76
2022/08/01 11:38:47;;;;;;;5.72;4.65;;;;;;;37.41;36.29;99143.02;1802140;77;20998;-82
2022/08/01 11:41:19;;;;;;;5.37;4.23;;;;;;;37.03;36.65;99144.52;1756434;80;21505;-81
2022/08/01 11:44:09;;;;;;;;;;;;;;;36.55;37.40;99148.70;1805895;78;21131;-83
2022/08/01 11:46:56;;;;;;;5.53;4.25;;;;;;;36.26;38.06;99142.99;1771769;78;21627;-77